sensor_id;sensor_type;location;lat;lon;timestamp;P1;durP1;ratioP1;P2;durP2;ratioP2
15132;SDS011;7667;51.232;17.110;2023-04-07T00:02:12;11.70;;;9.97;;
15132;SDS011;7667;51.232;17.110;2023-04-07T00:04:39;12.80;;;10.83;;
15132;SDS011;7667;51.232;17.110;2023-04-07T00:07:07;13.50;;;11.03;;
15132;SDS011;7667;51.232;17.110;2023-04-07T00:09:34;13.07;;;11.40;;
15132;SDS011;7667;51.232;17.110;2023-04-07T00:12:02;13.83;;;11.20;;
15132;SDS011;7667;51.232;17.110;2023-04-07T00:14:30;12.47;;;10.97;;
15132;SDS011;7667;51.232;17.110;2023-04-07T00:16:58;13.07;;;11.27;;
15132;SDS011;7667;51.232;17.110;2023-04-07T00:19:25;14.83;;;11.83;;
15132;SDS011;7667;51.232;17.110;2023-04-07T00:21:53;17.27;;;12.03;;
15132;SDS011;7667;51.232;17.110;2023-04-07T00:24:21;16.10;;;13.27;;
15132;SDS011;7667;51.232;17.110;2023-04-07T00:26:59;15.77;;;13.67;;
15132;SDS011;7667;51.232;17.110;2023-04-07T00:29:27;16.97;;;12.47;;
15132;SDS011;7667;51.232;17.110;2023-04-07T00:31:55;15.10;;;13.50;;
15132;SDS011;7667;51.232;17.110;2023-04-07T00:34:22;17.47;;;14.30;;
15132;SDS011;7667;51.232;17.110;2023-04-07T00:36:50;15.97;;;14.30;;
15132;SDS011;7667;51.232;17.110;2023-04-07T00:39:19;18.07;;;14.57;;
15132;SDS011;7667;51.232;17.110;2023-04-07T00:41:47;15.73;;;14.03;;
15132;SDS011;7667;51.232;17.110;2023-04-07T00:44:14;15.37;;;13.77;;
15132;SDS011;7667;51.232;17.110;2023-04-07T00:46:42;16.30;;;14.50;;
15132;SDS011;7667;51.232;17.110;2023-04-07T00:49:09;17.30;;;14.97;;
15132;SDS011;7667;51.232;17.110;2023-04-07T00:51:38;16.97;;;14.63;;
15132;SDS011;7667;51.232;17.110;2023-04-07T00:54:06;16.13;;;14.43;;
15132;SDS011;7667;51.232;17.110;2023-04-07T00:56:36;16.43;;;14.80;;
15132;SDS011;7667;51.232;17.110;2023-04-07T00:59:03;18.07;;;14.80;;
15132;SDS011;7667;51.232;17.110;2023-04-07T01:01:33;16.03;;;13.90;;
15132;SDS011;7667;51.232;17.110;2023-04-07T01:04:17;17.90;;;13.30;;
15132;SDS011;7667;51.232;17.110;2023-04-07T01:07:18;15.93;;;13.70;;
15132;SDS011;7667;51.232;17.110;2023-04-07T01:10:09;17.63;;;14.43;;
15132;SDS011;7667;51.232;17.110;2023-04-07T01:16:07;17.70;;;14.47;;
15132;SDS011;7667;51.232;17.110;2023-04-07T01:18:39;16.87;;;14.93;;
15132;SDS011;7667;51.232;17.110;2023-04-07T01:21:08;19.70;;;16.73;;
15132;SDS011;7667;51.232;17.110;2023-04-07T01:23:59;17.87;;;15.97;;
15132;SDS011;7667;51.232;17.110;2023-04-07T01:26:37;16.60;;;14.80;;
15132;SDS011;7667;51.232;17.110;2023-04-07T01:32:10;18.53;;;16.13;;
15132;SDS011;7667;51.232;17.110;2023-04-07T01:34:39;17.50;;;15.80;;
15132;SDS011;7667;51.232;17.110;2023-04-07T01:37:07;18.20;;;15.47;;
15132;SDS011;7667;51.232;17.110;2023-04-07T01:39:37;17.23;;;15.53;;
15132;SDS011;7667;51.232;17.110;2023-04-07T01:42:05;16.40;;;14.60;;
15132;SDS011;7667;51.232;17.110;2023-04-07T01:44:34;15.70;;;14.10;;
15132;SDS011;7667;51.232;17.110;2023-04-07T01:47:02;16.03;;;14.43;;
15132;SDS011;7667;51.232;17.110;2023-04-07T01:49:31;15.07;;;13.27;;
15132;SDS011;7667;51.232;17.110;2023-04-07T01:52:01;15.97;;;13.43;;
15132;SDS011;7667;51.232;17.110;2023-04-07T01:54:30;15.07;;;12.50;;
15132;SDS011;7667;51.232;17.110;2023-04-07T01:56:59;13.90;;;12.30;;
15132;SDS011;7667;51.232;17.110;2023-04-07T01:59:27;14.80;;;13.10;;
15132;SDS011;7667;51.232;17.110;2023-04-07T02:01:56;14.17;;;12.53;;
15132;SDS011;7667;51.232;17.110;2023-04-07T02:04:31;15.30;;;13.70;;
15132;SDS011;7667;51.232;17.110;2023-04-07T02:07:02;16.73;;;13.97;;
15132;SDS011;7667;51.232;17.110;2023-04-07T02:09:37;14.53;;;12.90;;
15132;SDS011;7667;51.232;17.110;2023-04-07T02:12:07;14.63;;;13.13;;
15132;SDS011;7667;51.232;17.110;2023-04-07T02:14:37;15.47;;;13.67;;
15132;SDS011;7667;51.232;17.110;2023-04-07T02:17:06;15.00;;;13.50;;
15132;SDS011;7667;51.232;17.110;2023-04-07T02:19:34;14.63;;;12.13;;
15132;SDS011;7667;51.232;17.110;2023-04-07T02:22:02;14.97;;;13.37;;
15132;SDS011;7667;51.232;17.110;2023-04-07T02:24:31;13.70;;;12.23;;
15132;SDS011;7667;51.232;17.110;2023-04-07T02:26:58;14.43;;;12.93;;
15132;SDS011;7667;51.232;17.110;2023-04-07T02:29:29;14.93;;;13.00;;
15132;SDS011;7667;51.232;17.110;2023-04-07T02:31:56;15.50;;;13.87;;
15132;SDS011;7667;51.232;17.110;2023-04-07T02:34:24;13.30;;;11.90;;
15132;SDS011;7667;51.232;17.110;2023-04-07T02:36:52;13.90;;;12.27;;
15132;SDS011;7667;51.232;17.110;2023-04-07T02:39:19;14.67;;;13.07;;
15132;SDS011;7667;51.232;17.110;2023-04-07T02:41:47;14.37;;;12.90;;
15132;SDS011;7667;51.232;17.110;2023-04-07T02:44:14;14.93;;;13.40;;
15132;SDS011;7667;51.232;17.110;2023-04-07T02:46:42;14.77;;;13.20;;
15132;SDS011;7667;51.232;17.110;2023-04-07T02:49:09;15.73;;;13.60;;
15132;SDS011;7667;51.232;17.110;2023-04-07T02:51:37;16.60;;;13.77;;
15132;SDS011;7667;51.232;17.110;2023-04-07T02:54:04;15.10;;;13.10;;
15132;SDS011;7667;51.232;17.110;2023-04-07T02:56:32;15.90;;;13.33;;
15132;SDS011;7667;51.232;17.110;2023-04-07T02:58:59;15.50;;;13.70;;
15132;SDS011;7667;51.232;17.110;2023-04-07T03:01:27;16.33;;;14.40;;
15132;SDS011;7667;51.232;17.110;2023-04-07T03:03:54;16.57;;;14.27;;
15132;SDS011;7667;51.232;17.110;2023-04-07T03:06:22;15.37;;;13.83;;
15132;SDS011;7667;51.232;17.110;2023-04-07T03:08:50;16.67;;;14.93;;
15132;SDS011;7667;51.232;17.110;2023-04-07T03:11:18;16.30;;;13.97;;
15132;SDS011;7667;51.232;17.110;2023-04-07T03:13:45;17.37;;;14.57;;
15132;SDS011;7667;51.232;17.110;2023-04-07T03:16:12;18.43;;;15.30;;
15132;SDS011;7667;51.232;17.110;2023-04-07T03:18:40;20.93;;;16.60;;
15132;SDS011;7667;51.232;17.110;2023-04-07T03:21:08;18.27;;;15.90;;
15132;SDS011;7667;51.232;17.110;2023-04-07T03:23:36;17.90;;;16.00;;
15132;SDS011;7667;51.232;17.110;2023-04-07T03:26:03;19.20;;;17.20;;
15132;SDS011;7667;51.232;17.110;2023-04-07T03:28:31;18.80;;;16.67;;
15132;SDS011;7667;51.232;17.110;2023-04-07T03:30:58;18.63;;;15.77;;
15132;SDS011;7667;51.232;17.110;2023-04-07T03:33:26;16.87;;;15.13;;
15132;SDS011;7667;51.232;17.110;2023-04-07T03:35:53;16.60;;;14.90;;
15132;SDS011;7667;51.232;17.110;2023-04-07T03:38:21;16.30;;;13.63;;
15132;SDS011;7667;51.232;17.110;2023-04-07T03:40:48;15.37;;;13.77;;
15132;SDS011;7667;51.232;17.110;2023-04-07T03:43:16;17.40;;;13.90;;
15132;SDS011;7667;51.232;17.110;2023-04-07T03:45:43;18.07;;;15.63;;
15132;SDS011;7667;51.232;17.110;2023-04-07T03:48:12;14.93;;;13.43;;
15132;SDS011;7667;51.232;17.110;2023-04-07T03:50:40;15.97;;;14.27;;
15132;SDS011;7667;51.232;17.110;2023-04-07T03:53:07;14.87;;;13.37;;
15132;SDS011;7667;51.232;17.110;2023-04-07T03:55:35;16.23;;;13.90;;
15132;SDS011;7667;51.232;17.110;2023-04-07T03:58:03;15.07;;;13.20;;
15132;SDS011;7667;51.232;17.110;2023-04-07T04:00:30;13.93;;;12.53;;
15132;SDS011;7667;51.232;17.110;2023-04-07T04:02:59;14.87;;;13.23;;
15132;SDS011;7667;51.232;17.110;2023-04-07T04:05:27;15.30;;;13.70;;
15132;SDS011;7667;51.232;17.110;2023-04-07T04:07:55;14.53;;;13.00;;
15132;SDS011;7667;51.232;17.110;2023-04-07T04:10:22;14.40;;;12.40;;
15132;SDS011;7667;51.232;17.110;2023-04-07T04:12:50;13.10;;;11.80;;
15132;SDS011;7667;51.232;17.110;2023-04-07T04:15:17;15.50;;;12.73;;
15132;SDS011;7667;51.232;17.110;2023-04-07T04:17:45;14.10;;;12.20;;
15132;SDS011;7667;51.232;17.110;2023-04-07T04:20:12;14.47;;;12.97;;
15132;SDS011;7667;51.232;17.110;2023-04-07T04:22:40;14.07;;;12.67;;
15132;SDS011;7667;51.232;17.110;2023-04-07T04:25:07;14.30;;;12.87;;
15132;SDS011;7667;51.232;17.110;2023-04-07T04:27:35;14.43;;;12.70;;
15132;SDS011;7667;51.232;17.110;2023-04-07T04:30:03;14.50;;;12.93;;
15132;SDS011;7667;51.232;17.110;2023-04-07T04:32:31;14.90;;;13.30;;
15132;SDS011;7667;51.232;17.110;2023-04-07T04:34:59;12.97;;;11.70;;
15132;SDS011;7667;51.232;17.110;2023-04-07T04:37:26;13.00;;;11.70;;
15132;SDS011;7667;51.232;17.110;2023-04-07T04:39:54;15.10;;;12.77;;
15132;SDS011;7667;51.232;17.110;2023-04-07T04:42:22;14.77;;;12.60;;
15132;SDS011;7667;51.232;17.110;2023-04-07T04:44:49;18.73;;;16.33;;
15132;SDS011;7667;51.232;17.110;2023-04-07T04:47:17;16.83;;;13.97;;
15132;SDS011;7667;51.232;17.110;2023-04-07T04:49:45;16.43;;;13.97;;
15132;SDS011;7667;51.232;17.110;2023-04-07T04:52:12;16.13;;;14.43;;
15132;SDS011;7667;51.232;17.110;2023-04-07T04:54:40;16.47;;;13.53;;
15132;SDS011;7667;51.232;17.110;2023-04-07T04:57:07;17.80;;;14.87;;
15132;SDS011;7667;51.232;17.110;2023-04-07T04:59:35;17.63;;;14.20;;
15132;SDS011;7667;51.232;17.110;2023-04-07T05:02:02;16.63;;;13.80;;
15132;SDS011;7667;51.232;17.110;2023-04-07T05:04:30;15.73;;;13.00;;
15132;SDS011;7667;51.232;17.110;2023-04-07T05:06:58;15.07;;;13.47;;
15132;SDS011;7667;51.232;17.110;2023-04-07T05:09:26;18.30;;;14.27;;
15132;SDS011;7667;51.232;17.110;2023-04-07T05:11:53;15.23;;;13.63;;
15132;SDS011;7667;51.232;17.110;2023-04-07T05:14:21;16.67;;;13.87;;
15132;SDS011;7667;51.232;17.110;2023-04-07T05:16:49;17.50;;;14.33;;
15132;SDS011;7667;51.232;17.110;2023-04-07T05:19:17;16.40;;;13.40;;
15132;SDS011;7667;51.232;17.110;2023-04-07T05:21:45;15.57;;;13.27;;
15132;SDS011;7667;51.232;17.110;2023-04-07T05:24:12;19.83;;;15.87;;
15132;SDS011;7667;51.232;17.110;2023-04-07T05:26:40;16.00;;;13.83;;
15132;SDS011;7667;51.232;17.110;2023-04-07T05:29:07;14.80;;;13.30;;
15132;SDS011;7667;51.232;17.110;2023-04-07T05:31:35;17.20;;;13.20;;
15132;SDS011;7667;51.232;17.110;2023-04-07T05:34:03;16.50;;;13.47;;
15132;SDS011;7667;51.232;17.110;2023-04-07T05:36:30;16.37;;;14.60;;
15132;SDS011;7667;51.232;17.110;2023-04-07T05:38:59;15.47;;;13.87;;
15132;SDS011;7667;51.232;17.110;2023-04-07T05:41:26;17.27;;;14.97;;
15132;SDS011;7667;51.232;17.110;2023-04-07T05:43:54;18.27;;;15.03;;
15132;SDS011;7667;51.232;17.110;2023-04-07T05:46:21;14.93;;;13.17;;
15132;SDS011;7667;51.232;17.110;2023-04-07T05:48:49;17.07;;;14.80;;
15132;SDS011;7667;51.232;17.110;2023-04-07T05:51:17;19.00;;;16.00;;
15132;SDS011;7667;51.232;17.110;2023-04-07T05:53:44;16.80;;;14.80;;
15132;SDS011;7667;51.232;17.110;2023-04-07T05:56:12;18.57;;;14.90;;
15132;SDS011;7667;51.232;17.110;2023-04-07T05:58:39;23.47;;;20.97;;
15132;SDS011;7667;51.232;17.110;2023-04-07T06:01:07;18.23;;;16.27;;
15132;SDS011;7667;51.232;17.110;2023-04-07T06:03:34;19.30;;;16.77;;
15132;SDS011;7667;51.232;17.110;2023-04-07T06:06:02;15.20;;;13.23;;
15132;SDS011;7667;51.232;17.110;2023-04-07T06:08:30;17.23;;;15.40;;
15132;SDS011;7667;51.232;17.110;2023-04-07T06:10:57;18.17;;;16.10;;
15132;SDS011;7667;51.232;17.110;2023-04-07T06:13:25;15.70;;;13.90;;
15132;SDS011;7667;51.232;17.110;2023-04-07T06:15:56;15.40;;;13.80;;
15132;SDS011;7667;51.232;17.110;2023-04-07T06:18:23;16.97;;;15.27;;
15132;SDS011;7667;51.232;17.110;2023-04-07T06:20:51;20.00;;;17.93;;
15132;SDS011;7667;51.232;17.110;2023-04-07T06:23:18;28.63;;;25.73;;
15132;SDS011;7667;51.232;17.110;2023-04-07T06:25:46;20.20;;;18.17;;
15132;SDS011;7667;51.232;17.110;2023-04-07T06:28:17;20.13;;;16.63;;
15132;SDS011;7667;51.232;17.110;2023-04-07T06:30:45;18.83;;;16.87;;
15132;SDS011;7667;51.232;17.110;2023-04-07T06:33:13;15.87;;;14.07;;
15132;SDS011;7667;51.232;17.110;2023-04-07T06:35:41;15.83;;;14.13;;
15132;SDS011;7667;51.232;17.110;2023-04-07T06:38:09;15.10;;;13.47;;
15132;SDS011;7667;51.232;17.110;2023-04-07T06:40:37;13.93;;;12.47;;
15132;SDS011;7667;51.232;17.110;2023-04-07T06:43:05;15.60;;;13.83;;
15132;SDS011;7667;51.232;17.110;2023-04-07T06:45:32;14.27;;;12.60;;
15132;SDS011;7667;51.232;17.110;2023-04-07T06:48:00;13.80;;;12.40;;
15132;SDS011;7667;51.232;17.110;2023-04-07T06:50:27;13.37;;;11.67;;
15132;SDS011;7667;51.232;17.110;2023-04-07T06:52:55;13.50;;;12.10;;
15132;SDS011;7667;51.232;17.110;2023-04-07T06:55:23;12.87;;;11.10;;
15132;SDS011;7667;51.232;17.110;2023-04-07T06:57:50;14.23;;;12.50;;
15132;SDS011;7667;51.232;17.110;2023-04-07T07:00:18;13.73;;;12.33;;
15132;SDS011;7667;51.232;17.110;2023-04-07T07:02:46;13.77;;;12.37;;
15132;SDS011;7667;51.232;17.110;2023-04-07T07:05:14;13.57;;;12.07;;
15132;SDS011;7667;51.232;17.110;2023-04-07T07:07:41;12.47;;;11.10;;
15132;SDS011;7667;51.232;17.110;2023-04-07T07:10:09;14.30;;;11.97;;
15132;SDS011;7667;51.232;17.110;2023-04-07T07:12:36;12.67;;;11.37;;
15132;SDS011;7667;51.232;17.110;2023-04-07T07:15:04;12.93;;;11.57;;
15132;SDS011;7667;51.232;17.110;2023-04-07T07:17:33;13.17;;;11.63;;
15132;SDS011;7667;51.232;17.110;2023-04-07T07:20:00;12.90;;;11.60;;
15132;SDS011;7667;51.232;17.110;2023-04-07T07:22:28;12.80;;;11.40;;
15132;SDS011;7667;51.232;17.110;2023-04-07T07:24:56;12.60;;;11.30;;
15132;SDS011;7667;51.232;17.110;2023-04-07T07:27:23;13.53;;;12.10;;
15132;SDS011;7667;51.232;17.110;2023-04-07T07:29:51;12.30;;;11.00;;
15132;SDS011;7667;51.232;17.110;2023-04-07T07:32:19;11.73;;;10.53;;
15132;SDS011;7667;51.232;17.110;2023-04-07T07:34:46;11.73;;;10.53;;
15132;SDS011;7667;51.232;17.110;2023-04-07T07:37:14;14.57;;;12.53;;
15132;SDS011;7667;51.232;17.110;2023-04-07T07:39:42;13.00;;;10.63;;
15132;SDS011;7667;51.232;17.110;2023-04-07T07:42:09;12.70;;;11.37;;
15132;SDS011;7667;51.232;17.110;2023-04-07T07:44:37;12.77;;;11.47;;
15132;SDS011;7667;51.232;17.110;2023-04-07T07:47:04;12.57;;;11.27;;
15132;SDS011;7667;51.232;17.110;2023-04-07T07:49:32;12.93;;;11.27;;
15132;SDS011;7667;51.232;17.110;2023-04-07T07:51:59;11.83;;;10.60;;
15132;SDS011;7667;51.232;17.110;2023-04-07T07:54:28;11.87;;;10.20;;
15132;SDS011;7667;51.232;17.110;2023-04-07T07:56:55;11.60;;;10.40;;
15132;SDS011;7667;51.232;17.110;2023-04-07T07:59:23;11.93;;;10.73;;
15132;SDS011;7667;51.232;17.110;2023-04-07T08:01:50;16.23;;;14.63;;
15132;SDS011;7667;51.232;17.110;2023-04-07T08:04:18;13.17;;;11.77;;
15132;SDS011;7667;51.232;17.110;2023-04-07T08:06:46;13.40;;;12.13;;
15132;SDS011;7667;51.232;17.110;2023-04-07T08:09:13;10.53;;;9.43;;
15132;SDS011;7667;51.232;17.110;2023-04-07T08:11:41;12.43;;;11.17;;
15132;SDS011;7667;51.232;17.110;2023-04-07T08:14:09;13.40;;;12.00;;
15132;SDS011;7667;51.232;17.110;2023-04-07T08:16:36;12.80;;;11.50;;
15132;SDS011;7667;51.232;17.110;2023-04-07T08:19:04;12.00;;;10.70;;
15132;SDS011;7667;51.232;17.110;2023-04-07T08:21:32;13.23;;;11.37;;
15132;SDS011;7667;51.232;17.110;2023-04-07T08:24:00;12.80;;;11.47;;
15132;SDS011;7667;51.232;17.110;2023-04-07T08:26:27;13.67;;;11.90;;
15132;SDS011;7667;51.232;17.110;2023-04-07T08:28:55;13.23;;;11.83;;
15132;SDS011;7667;51.232;17.110;2023-04-07T08:31:24;14.10;;;12.17;;
15132;SDS011;7667;51.232;17.110;2023-04-07T08:33:52;13.47;;;12.07;;
15132;SDS011;7667;51.232;17.110;2023-04-07T08:36:24;12.03;;;10.70;;
15132;SDS011;7667;51.232;17.110;2023-04-07T08:38:53;12.20;;;10.80;;
15132;SDS011;7667;51.232;17.110;2023-04-07T08:41:22;13.80;;;12.27;;
15132;SDS011;7667;51.232;17.110;2023-04-07T08:43:56;14.20;;;12.30;;
15132;SDS011;7667;51.232;17.110;2023-04-07T08:46:24;14.87;;;13.27;;
15132;SDS011;7667;51.232;17.110;2023-04-07T08:48:53;12.67;;;11.20;;
15132;SDS011;7667;51.232;17.110;2023-04-07T08:51:29;13.63;;;10.80;;
15132;SDS011;7667;51.232;17.110;2023-04-07T08:54:08;12.73;;;11.23;;
15132;SDS011;7667;51.232;17.110;2023-04-07T08:56:39;13.10;;;11.80;;
15132;SDS011;7667;51.232;17.110;2023-04-07T08:59:09;14.63;;;11.57;;
15132;SDS011;7667;51.232;17.110;2023-04-07T09:01:39;13.63;;;12.20;;
15132;SDS011;7667;51.232;17.110;2023-04-07T09:04:08;13.87;;;12.33;;
15132;SDS011;7667;51.232;17.110;2023-04-07T09:06:36;13.87;;;12.17;;
15132;SDS011;7667;51.232;17.110;2023-04-07T09:09:04;14.87;;;13.03;;
15132;SDS011;7667;51.232;17.110;2023-04-07T09:11:35;13.83;;;12.33;;
15132;SDS011;7667;51.232;17.110;2023-04-07T09:14:05;21.67;;;18.43;;
15132;SDS011;7667;51.232;17.110;2023-04-07T09:16:33;17.40;;;14.53;;
15132;SDS011;7667;51.232;17.110;2023-04-07T09:19:01;15.53;;;13.33;;
15132;SDS011;7667;51.232;17.110;2023-04-07T09:21:45;13.07;;;11.70;;
15132;SDS011;7667;51.232;17.110;2023-04-07T09:24:25;15.00;;;11.87;;
15132;SDS011;7667;51.232;17.110;2023-04-07T09:27:07;13.27;;;11.80;;
15132;SDS011;7667;51.232;17.110;2023-04-07T09:29:43;13.80;;;12.40;;
15132;SDS011;7667;51.232;17.110;2023-04-07T09:35:10;14.50;;;13.00;;
15132;SDS011;7667;51.232;17.110;2023-04-07T09:37:37;14.30;;;12.77;;
15132;SDS011;7667;51.232;17.110;2023-04-07T09:40:05;14.37;;;12.80;;
15132;SDS011;7667;51.232;17.110;2023-04-07T09:42:43;14.40;;;12.07;;
15132;SDS011;7667;51.232;17.110;2023-04-07T09:45:12;14.83;;;13.20;;
15132;SDS011;7667;51.232;17.110;2023-04-07T09:48:04;14.60;;;12.63;;
15132;SDS011;7667;51.232;17.110;2023-04-07T09:50:38;15.20;;;13.60;;
15132;SDS011;7667;51.232;17.110;2023-04-07T09:53:07;14.07;;;12.57;;
15132;SDS011;7667;51.232;17.110;2023-04-07T09:55:35;13.73;;;11.90;;
15132;SDS011;7667;51.232;17.110;2023-04-07T09:58:06;15.20;;;13.13;;
15132;SDS011;7667;51.232;17.110;2023-04-07T10:00:35;14.93;;;13.20;;
15132;SDS011;7667;51.232;17.110;2023-04-07T10:03:03;17.33;;;13.87;;
15132;SDS011;7667;51.232;17.110;2023-04-07T10:05:33;17.27;;;13.77;;
15132;SDS011;7667;51.232;17.110;2023-04-07T10:08:02;16.23;;;13.50;;
15132;SDS011;7667;51.232;17.110;2023-04-07T10:10:33;15.67;;;13.50;;
15132;SDS011;7667;51.232;17.110;2023-04-07T10:13:03;15.20;;;13.20;;
15132;SDS011;7667;51.232;17.110;2023-04-07T10:15:32;16.10;;;13.27;;
15132;SDS011;7667;51.232;17.110;2023-04-07T10:17:59;18.10;;;14.77;;
15132;SDS011;7667;51.232;17.110;2023-04-07T10:20:31;24.10;;;18.90;;
15132;SDS011;7667;51.232;17.110;2023-04-07T10:25:48;27.43;;;21.43;;
15132;SDS011;7667;51.232;17.110;2023-04-07T10:28:18;16.30;;;13.00;;
15132;SDS011;7667;51.232;17.110;2023-04-07T10:30:49;16.07;;;14.07;;
15132;SDS011;7667;51.232;17.110;2023-04-07T10:33:17;19.43;;;14.60;;
15132;SDS011;7667;51.232;17.110;2023-04-07T10:36:04;18.23;;;14.60;;
15132;SDS011;7667;51.232;17.110;2023-04-07T10:38:33;15.93;;;13.40;;
15132;SDS011;7667;51.232;17.110;2023-04-07T10:41:07;29.17;;;18.90;;
15132;SDS011;7667;51.232;17.110;2023-04-07T10:44:09;40.97;;;25.53;;
15132;SDS011;7667;51.232;17.110;2023-04-07T10:47:06;24.00;;;19.17;;
15132;SDS011;7667;51.232;17.110;2023-04-07T10:49:34;24.90;;;19.57;;
15132;SDS011;7667;51.232;17.110;2023-04-07T10:54:39;17.40;;;15.50;;
15132;SDS011;7667;51.232;17.110;2023-04-07T10:57:12;19.20;;;15.97;;
15132;SDS011;7667;51.232;17.110;2023-04-07T11:02:38;17.90;;;14.70;;
15132;SDS011;7667;51.232;17.110;2023-04-07T11:05:07;17.33;;;13.67;;
15132;SDS011;7667;51.232;17.110;2023-04-07T11:07:47;16.80;;;14.07;;
15132;SDS011;7667;51.232;17.110;2023-04-07T11:10:24;15.77;;;13.67;;
15132;SDS011;7667;51.232;17.110;2023-04-07T11:12:58;14.80;;;12.23;;
15132;SDS011;7667;51.232;17.110;2023-04-07T11:15:31;14.90;;;12.20;;
15132;SDS011;7667;51.232;17.110;2023-04-07T11:23:19;16.67;;;13.60;;
15132;SDS011;7667;51.232;17.110;2023-04-07T11:25:50;14.63;;;12.80;;
15132;SDS011;7667;51.232;17.110;2023-04-07T11:28:19;16.80;;;12.50;;
15132;SDS011;7667;51.232;17.110;2023-04-07T11:30:48;18.27;;;15.77;;
15132;SDS011;7667;51.232;17.110;2023-04-07T11:33:21;16.17;;;12.83;;
15132;SDS011;7667;51.232;17.110;2023-04-07T11:35:53;13.57;;;11.93;;
15132;SDS011;7667;51.232;17.110;2023-04-07T11:38:27;12.47;;;11.00;;
15132;SDS011;7667;51.232;17.110;2023-04-07T11:41:08;13.00;;;10.47;;
15132;SDS011;7667;51.232;17.110;2023-04-07T11:43:37;16.00;;;12.90;;
15132;SDS011;7667;51.232;17.110;2023-04-07T11:46:12;15.00;;;11.83;;
15132;SDS011;7667;51.232;17.110;2023-04-07T11:48:42;13.47;;;10.93;;
15132;SDS011;7667;51.232;17.110;2023-04-07T11:51:18;15.80;;;11.80;;
15132;SDS011;7667;51.232;17.110;2023-04-07T11:53:55;12.93;;;11.03;;
15132;SDS011;7667;51.232;17.110;2023-04-07T11:56:23;14.87;;;13.03;;
15132;SDS011;7667;51.232;17.110;2023-04-07T11:58:52;20.93;;;16.87;;
15132;SDS011;7667;51.232;17.110;2023-04-07T12:01:21;17.20;;;14.33;;
15132;SDS011;7667;51.232;17.110;2023-04-07T12:04:01;12.60;;;10.83;;
15132;SDS011;7667;51.232;17.110;2023-04-07T12:06:34;13.73;;;11.53;;
15132;SDS011;7667;51.232;17.110;2023-04-07T12:09:04;13.33;;;11.40;;
15132;SDS011;7667;51.232;17.110;2023-04-07T12:11:32;15.10;;;12.17;;
15132;SDS011;7667;51.232;17.110;2023-04-07T12:14:01;13.03;;;10.80;;
15132;SDS011;7667;51.232;17.110;2023-04-07T12:16:31;15.67;;;11.87;;
15132;SDS011;7667;51.232;17.110;2023-04-07T12:19:03;15.40;;;12.60;;
15132;SDS011;7667;51.232;17.110;2023-04-07T12:21:31;14.07;;;12.03;;
15132;SDS011;7667;51.232;17.110;2023-04-07T12:23:59;13.10;;;11.40;;
15132;SDS011;7667;51.232;17.110;2023-04-07T12:26:26;14.17;;;11.30;;
15132;SDS011;7667;51.232;17.110;2023-04-07T12:28:54;12.50;;;10.80;;
15132;SDS011;7667;51.232;17.110;2023-04-07T12:31:24;12.00;;;10.63;;
15132;SDS011;7667;51.232;17.110;2023-04-07T12:33:52;15.20;;;12.00;;
15132;SDS011;7667;51.232;17.110;2023-04-07T12:36:19;15.63;;;12.67;;
15132;SDS011;7667;51.232;17.110;2023-04-07T12:38:46;14.27;;;12.77;;
15132;SDS011;7667;51.232;17.110;2023-04-07T12:41:14;15.00;;;13.40;;
15132;SDS011;7667;51.232;17.110;2023-04-07T12:43:41;15.40;;;12.87;;
15132;SDS011;7667;51.232;17.110;2023-04-07T12:46:12;18.23;;;13.73;;
15132;SDS011;7667;51.232;17.110;2023-04-07T12:48:40;24.53;;;20.30;;
15132;SDS011;7667;51.232;17.110;2023-04-07T12:51:07;15.60;;;12.77;;
15132;SDS011;7667;51.232;17.110;2023-04-07T12:53:35;16.90;;;12.53;;
15132;SDS011;7667;51.232;17.110;2023-04-07T12:56:03;14.63;;;12.10;;
15132;SDS011;7667;51.232;17.110;2023-04-07T12:58:30;15.23;;;13.63;;
15132;SDS011;7667;51.232;17.110;2023-04-07T13:00:58;13.37;;;11.97;;
15132;SDS011;7667;51.232;17.110;2023-04-07T13:03:26;13.70;;;11.40;;
15132;SDS011;7667;51.232;17.110;2023-04-07T13:05:54;20.00;;;16.00;;
15132;SDS011;7667;51.232;17.110;2023-04-07T13:08:21;18.43;;;14.53;;
15132;SDS011;7667;51.232;17.110;2023-04-07T13:10:49;21.40;;;17.20;;
15132;SDS011;7667;51.232;17.110;2023-04-07T13:13:16;15.40;;;12.90;;
15132;SDS011;7667;51.232;17.110;2023-04-07T13:15:44;25.47;;;20.70;;
15132;SDS011;7667;51.232;17.110;2023-04-07T13:18:12;18.73;;;13.30;;
15132;SDS011;7667;51.232;17.110;2023-04-07T13:20:39;18.33;;;14.40;;
15132;SDS011;7667;51.232;17.110;2023-04-07T13:23:07;17.00;;;13.20;;
15132;SDS011;7667;51.232;17.110;2023-04-07T13:25:36;15.27;;;12.93;;
15132;SDS011;7667;51.232;17.110;2023-04-07T13:28:03;15.47;;;13.60;;
15132;SDS011;7667;51.232;17.110;2023-04-07T13:30:32;15.00;;;12.67;;
15132;SDS011;7667;51.232;17.110;2023-04-07T13:33:00;15.00;;;12.07;;
15132;SDS011;7667;51.232;17.110;2023-04-07T13:35:27;16.50;;;12.70;;
15132;SDS011;7667;51.232;17.110;2023-04-07T13:37:56;15.03;;;12.80;;
15132;SDS011;7667;51.232;17.110;2023-04-07T13:40:24;16.37;;;13.47;;
15132;SDS011;7667;51.232;17.110;2023-04-07T13:42:51;14.73;;;12.30;;
15132;SDS011;7667;51.232;17.110;2023-04-07T13:45:19;13.47;;;11.60;;
15132;SDS011;7667;51.232;17.110;2023-04-07T13:47:46;14.73;;;12.10;;
15132;SDS011;7667;51.232;17.110;2023-04-07T13:50:14;15.13;;;12.50;;
15132;SDS011;7667;51.232;17.110;2023-04-07T13:52:41;14.67;;;12.50;;
15132;SDS011;7667;51.232;17.110;2023-04-07T13:55:09;15.07;;;13.10;;
15132;SDS011;7667;51.232;17.110;2023-04-07T13:57:37;15.80;;;12.33;;
15132;SDS011;7667;51.232;17.110;2023-04-07T14:00:04;12.77;;;10.63;;
15132;SDS011;7667;51.232;17.110;2023-04-07T14:02:33;13.07;;;11.33;;
15132;SDS011;7667;51.232;17.110;2023-04-07T14:05:01;12.60;;;11.23;;
15132;SDS011;7667;51.232;17.110;2023-04-07T14:07:28;14.13;;;11.17;;
15132;SDS011;7667;51.232;17.110;2023-04-07T14:09:56;12.10;;;10.20;;
15132;SDS011;7667;51.232;17.110;2023-04-07T14:12:24;12.50;;;10.63;;
15132;SDS011;7667;51.232;17.110;2023-04-07T14:14:52;12.53;;;11.20;;
15132;SDS011;7667;51.232;17.110;2023-04-07T14:17:20;12.10;;;10.67;;
15132;SDS011;7667;51.232;17.110;2023-04-07T14:19:48;11.00;;;9.67;;
15132;SDS011;7667;51.232;17.110;2023-04-07T14:22:15;10.87;;;9.77;;
15132;SDS011;7667;51.232;17.110;2023-04-07T14:24:43;11.77;;;10.33;;
15132;SDS011;7667;51.232;17.110;2023-04-07T14:27:10;11.77;;;10.37;;
15132;SDS011;7667;51.232;17.110;2023-04-07T14:29:39;11.13;;;9.70;;
15132;SDS011;7667;51.232;17.110;2023-04-07T14:32:07;11.03;;;9.27;;
15132;SDS011;7667;51.232;17.110;2023-04-07T14:34:34;9.73;;;8.70;;
15132;SDS011;7667;51.232;17.110;2023-04-07T14:37:02;8.97;;;7.87;;
15132;SDS011;7667;51.232;17.110;2023-04-07T14:39:29;9.90;;;8.57;;
15132;SDS011;7667;51.232;17.110;2023-04-07T14:41:57;10.53;;;9.43;;
15132;SDS011;7667;51.232;17.110;2023-04-07T14:44:26;9.60;;;8.50;;
15132;SDS011;7667;51.232;17.110;2023-04-07T14:46:54;9.27;;;8.27;;
15132;SDS011;7667;51.232;17.110;2023-04-07T14:49:22;12.70;;;11.40;;
15132;SDS011;7667;51.232;17.110;2023-04-07T14:51:51;10.90;;;9.23;;
15132;SDS011;7667;51.232;17.110;2023-04-07T14:54:19;10.23;;;9.13;;
15132;SDS011;7667;51.232;17.110;2023-04-07T14:56:47;10.17;;;8.87;;
15132;SDS011;7667;51.232;17.110;2023-04-07T14:59:15;11.10;;;10.00;;